createdAt,value
2023-03-06T00:01:01.696Z,27.33
2023-03-06T00:03:33.906Z,39.40
2023-03-06T00:06:02.347Z,33.22
2023-03-06T00:08:31.280Z,41.00
2023-03-06T00:11:03.558Z,38.70
2023-03-06T00:13:34.738Z,31.77
2023-03-06T00:16:06.520Z,34.80
2023-03-06T00:18:51.386Z,26.95
2023-03-06T00:21:28.533Z,27.27
2023-03-06T00:23:58.921Z,28.55
2023-03-06T00:26:42.159Z,24.40
2023-03-06T00:29:14.465Z,26.52
2023-03-06T00:31:46.498Z,25.85
2023-03-06T00:34:52.668Z,28.43
2023-03-06T00:37:23.478Z,21.33
2023-03-06T00:39:55.977Z,23.23
2023-03-06T00:42:26.763Z,23.83
2023-03-06T00:44:56.394Z,27.02
2023-03-06T00:47:34.029Z,23.10
2023-03-06T00:50:02.711Z,21.95
2023-03-06T00:52:33.920Z,17.73
2023-03-06T00:55:08.993Z,20.02
2023-03-06T00:57:38.823Z,19.90
2023-03-06T01:00:13.572Z,20.08
2023-03-06T01:02:43.986Z,19.33
2023-03-06T01:05:15.772Z,14.95
2023-03-06T01:07:45.739Z,18.67
2023-03-06T01:10:19.186Z,16.90
2023-03-06T01:12:50.662Z,17.48
2023-03-06T01:15:23.628Z,24.58
2023-03-06T01:17:54.962Z,17.77
2023-03-06T01:20:25.402Z,21.20
2023-03-06T01:22:58.182Z,22.30
2023-03-06T01:25:39.774Z,23.35
2023-03-06T01:28:09.722Z,20.42
2023-03-06T01:33:34.585Z,20.15
2023-03-06T01:36:07.942Z,20.65
2023-03-06T01:38:37.786Z,21.33
2023-03-06T01:41:07.480Z,19.15
2023-03-06T01:43:56.955Z,21.35
2023-03-06T01:46:37.329Z,17.17
2023-03-06T01:49:36.580Z,18.23
2023-03-06T01:52:16.242Z,17.42
2023-03-06T01:55:16.573Z,14.77
2023-03-06T01:57:53.920Z,15.77
2023-03-06T02:00:30.438Z,11.30
2023-03-06T02:03:30.544Z,12.52
2023-03-06T02:06:05.471Z,14.15
2023-03-06T02:08:35.571Z,13.27
2023-03-06T02:11:33.117Z,9.95
2023-03-06T02:14:03.396Z,13.60
2023-03-06T02:16:33.633Z,15.45
2023-03-06T02:19:19.813Z,14.15
2023-03-06T02:21:50.866Z,11.77
2023-03-06T02:24:20.518Z,8.52
2023-03-06T02:26:52.716Z,10.68
2023-03-06T02:29:25.888Z,11.52
2023-03-06T02:31:58.037Z,14.02
2023-03-06T02:34:26.722Z,17.83
2023-03-06T02:37:05.550Z,15.65
2023-03-06T02:39:41.847Z,10.10
2023-03-06T02:42:10.907Z,11.80
2023-03-06T02:44:43.515Z,11.32
2023-03-06T02:47:15.200Z,8.30
2023-03-06T02:49:44.707Z,9.68
2023-03-06T02:52:14.632Z,8.27
2023-03-06T02:54:43.266Z,10.48
2023-03-06T02:57:17.372Z,8.43
2023-03-06T02:59:47.481Z,11.02
2023-03-06T03:02:20.581Z,13.00
2023-03-06T03:04:49.801Z,9.73
2023-03-06T03:07:19.156Z,9.48
2023-03-06T03:09:50.928Z,10.68
2023-03-06T03:12:22.445Z,12.18
2023-03-06T03:14:51.894Z,12.93
2023-03-06T03:17:20.607Z,9.77
2023-03-06T03:19:51.517Z,13.32
2023-03-06T03:22:27.051Z,10.98
2023-03-06T03:24:56.544Z,12.02
2023-03-06T03:27:30.694Z,10.07
2023-03-06T03:30:00.219Z,10.90
2023-03-06T03:32:32.307Z,11.45
2023-03-06T03:35:02.730Z,14.13
2023-03-06T03:37:31.470Z,12.35
2023-03-06T03:40:04.301Z,14.02
2023-03-06T03:42:36.186Z,13.07
2023-03-06T03:45:06.324Z,13.55
2023-03-06T03:47:35.376Z,21.70
2023-03-06T03:50:05.337Z,15.18
2023-03-06T03:52:34.047Z,22.27
2023-03-06T03:55:05.083Z,18.05
2023-03-06T03:57:35.676Z,17.50
2023-03-06T04:00:11.149Z,17.90
2023-03-06T04:02:49.464Z,14.93
2023-03-06T04:05:27.620Z,17.60
2023-03-06T04:07:57.884Z,13.25
2023-03-06T04:10:28.449Z,15.82
2023-03-06T04:12:58.166Z,16.60
2023-03-06T04:15:28.306Z,16.92
2023-03-06T04:17:58.922Z,16.02
2023-03-06T04:20:31.343Z,12.57
2023-03-06T04:23:03.322Z,14.35
2023-03-06T04:25:37.326Z,14.23
2023-03-06T04:28:11.598Z,16.15
2023-03-06T04:30:46.527Z,12.82
2023-03-06T04:33:19.102Z,16.58
2023-03-06T04:35:48.175Z,15.25
2023-03-06T04:38:22.489Z,17.75
2023-03-06T04:40:51.680Z,27.15
2023-03-06T04:43:29.186Z,38.10
2023-03-06T04:45:59.320Z,19.70
2023-03-06T04:48:27.662Z,15.23
2023-03-06T04:51:08.671Z,16.58
2023-03-06T04:53:41.111Z,15.55
2023-03-06T04:56:18.361Z,15.50
2023-03-06T04:58:47.479Z,22.05
2023-03-06T05:01:17.499Z,18.75
2023-03-06T05:03:47.724Z,16.95
2023-03-06T05:06:25.665Z,19.65
2023-03-06T05:08:54.413Z,25.88
2023-03-06T05:11:23.331Z,107.35
2023-03-06T05:13:53.276Z,67.88
2023-03-06T05:16:24.478Z,40.97
2023-03-06T05:18:53.114Z,15.15
2023-03-06T05:21:24.429Z,20.08
2023-03-06T05:23:53.370Z,18.00
2023-03-06T05:26:25.845Z,22.88
2023-03-06T05:28:55.496Z,21.27
2023-03-06T05:31:23.997Z,26.25
2023-03-06T05:33:53.802Z,20.63
2023-03-06T05:36:41.027Z,28.25
2023-03-06T05:39:09.907Z,26.00
2023-03-06T05:41:41.232Z,23.33
2023-03-06T05:44:16.205Z,24.05
2023-03-06T05:46:50.864Z,41.65
2023-03-06T05:49:25.994Z,25.30
2023-03-06T05:51:54.685Z,25.98
2023-03-06T05:54:25.410Z,46.38
2023-03-06T05:56:57.650Z,40.33
2023-03-06T05:59:28.685Z,37.08
2023-03-06T06:01:58.643Z,43.90
2023-03-06T06:04:28.858Z,56.45
2023-03-06T06:07:06.432Z,45.25
2023-03-06T06:09:35.695Z,46.70
2023-03-06T06:12:39.092Z,59.40
2023-03-06T06:15:13.691Z,50.92
2023-03-06T06:17:45.955Z,40.15
2023-03-06T06:20:14.911Z,34.17
2023-03-06T06:22:44.609Z,55.38
2023-03-06T06:25:18.787Z,65.68
2023-03-06T06:28:02.209Z,87.75
2023-03-06T06:30:31.849Z,67.78
2023-03-06T06:33:00.802Z,56.10
2023-03-06T06:35:31.885Z,40.28
2023-03-06T06:38:05.922Z,34.53
2023-03-06T06:40:41.522Z,34.95
2023-03-06T06:43:10.092Z,50.30
2023-03-06T06:45:40.109Z,33.05
2023-03-06T06:48:16.695Z,37.50
2023-03-06T06:50:46.610Z,27.02
2023-03-06T06:53:15.153Z,32.65
2023-03-06T06:55:54.189Z,31.27
2023-03-06T07:03:04.689Z,18.23
2023-03-06T07:05:35.209Z,27.20
2023-03-06T07:08:07.225Z,25.08
2023-03-06T07:10:42.322Z,29.95
2023-03-06T07:13:12.731Z,27.02
2023-03-06T07:18:53.914Z,22.83
2023-03-06T07:21:29.295Z,28.85
2023-03-06T07:24:00.677Z,24.25
2023-03-06T07:26:34.392Z,20.05
2023-03-06T07:29:05.449Z,18.45
2023-03-06T07:31:39.582Z,19.65
2023-03-06T07:34:08.665Z,18.55
2023-03-06T07:36:37.335Z,15.13
2023-03-06T07:39:10.398Z,19.25
2023-03-06T07:41:39.478Z,15.02
2023-03-06T07:44:13.446Z,16.75
2023-03-06T07:46:43.036Z,13.52
2023-03-06T07:49:11.732Z,16.27
2023-03-06T07:51:41.609Z,12.80
2023-03-06T07:54:12.580Z,12.98
2023-03-06T07:56:46.812Z,16.80
2023-03-06T07:59:17.497Z,13.45
2023-03-06T08:01:46.276Z,15.45
2023-03-06T08:04:16.302Z,23.83
2023-03-06T08:06:44.700Z,24.65
2023-03-06T08:09:13.507Z,21.95
2023-03-06T08:11:42.984Z,18.20
2023-03-06T08:14:11.705Z,23.90
2023-03-06T08:16:40.963Z,26.17
2023-03-06T08:19:16.889Z,22.92
2023-03-06T08:21:54.780Z,23.58
2023-03-06T08:24:23.617Z,25.05
2023-03-06T08:26:51.719Z,31.90
2023-03-06T08:29:21.792Z,33.88
2023-03-06T08:31:52.398Z,37.13
2023-03-06T08:34:25.542Z,45.25
2023-03-06T08:36:54.499Z,45.42
2023-03-06T08:39:30.204Z,63.40
2023-03-06T08:42:00.741Z,32.13
2023-03-06T08:44:31.644Z,69.40
2023-03-06T08:47:02.925Z,19.70
2023-03-06T08:49:38.833Z,22.98
2023-03-06T08:52:13.018Z,24.08
2023-03-06T08:54:51.930Z,24.85
2023-03-06T08:57:21.027Z,23.10
2023-03-06T08:59:50.598Z,25.38
2023-03-06T09:02:21.046Z,24.65
2023-03-06T09:04:51.184Z,21.98
2023-03-06T09:07:19.583Z,32.67
2023-03-06T09:09:48.997Z,30.25
2023-03-06T09:14:53.242Z,23.25
2023-03-06T09:17:24.150Z,21.58
2023-03-06T09:19:55.550Z,23.00
2023-03-06T09:22:24.543Z,17.83
2023-03-06T09:25:00.653Z,17.40
2023-03-06T09:27:36.354Z,16.98
2023-03-06T09:30:09.852Z,30.15
2023-03-06T09:32:39.505Z,17.45
2023-03-06T09:35:11.831Z,18.08
2023-03-06T09:37:47.928Z,15.05
2023-03-06T09:43:39.123Z,27.33
2023-03-06T09:46:41.610Z,19.67
2023-03-06T09:49:41.777Z,16.08
2023-03-06T09:52:31.535Z,19.73
2023-03-06T09:55:29.837Z,17.50
2023-03-06T09:58:25.076Z,11.30
2023-03-06T10:01:13.222Z,20.15
2023-03-06T10:04:12.857Z,56.25
2023-03-06T10:07:02.564Z,18.92
2023-03-06T10:09:39.226Z,13.07
2023-03-06T10:12:29.027Z,12.93
2023-03-06T10:15:12.876Z,6.80
2023-03-06T10:17:46.667Z,9.43
2023-03-06T10:20:41.671Z,11.27
2023-03-06T10:23:25.676Z,12.93
2023-03-06T10:26:17.126Z,9.52
2023-03-06T10:29:13.975Z,12.80
2023-03-06T10:31:50.294Z,16.77
2023-03-06T10:34:23.725Z,16.58
2023-03-06T10:36:53.057Z,11.60
2023-03-06T10:39:23.804Z,18.70
2023-03-06T10:41:51.981Z,22.25
2023-03-06T10:44:22.537Z,17.65
2023-03-06T10:46:54.529Z,19.40
2023-03-06T10:49:56.576Z,16.80
2023-03-06T10:52:33.479Z,20.42
2023-03-06T10:55:25.846Z,13.27
2023-03-06T10:57:57.402Z,23.73
2023-03-06T11:00:38.563Z,21.75
2023-03-06T11:03:36.122Z,28.50
2023-03-06T11:06:15.336Z,49.55
2023-03-06T11:08:45.559Z,29.70
2023-03-06T11:11:35.259Z,27.67
2023-03-06T11:14:15.631Z,44.85
2023-03-06T11:16:56.217Z,43.75
2023-03-06T11:19:29.566Z,27.95
2023-03-06T11:22:21.567Z,27.25
2023-03-06T11:24:55.395Z,18.20
2023-03-06T11:27:34.719Z,72.63
2023-03-06T11:30:18.427Z,54.72
2023-03-06T11:32:58.567Z,17.92
2023-03-06T11:35:36.715Z,56.97
2023-03-06T11:38:16.939Z,36.92
2023-03-06T11:40:55.159Z,19.45
2023-03-06T11:43:58.062Z,27.25
2023-03-06T11:46:49.689Z,23.02
2023-03-06T11:49:29.648Z,29.70
2023-03-06T11:52:07.434Z,19.35
2023-03-06T11:54:36.993Z,15.23
2023-03-06T11:57:21.773Z,18.70
2023-03-06T12:00:24.869Z,10.05
2023-03-06T12:03:44.930Z,28.45
2023-03-06T12:06:38.953Z,43.33
2023-03-06T12:09:09.997Z,37.50
2023-03-06T12:11:53.611Z,26.98
2023-03-06T12:14:36.516Z,43.15
2023-03-06T12:17:29.695Z,167.02
2023-03-06T12:20:23.105Z,15.82
2023-03-06T12:23:14.852Z,47.30
2023-03-06T12:25:50.578Z,28.00
2023-03-06T12:28:21.946Z,19.70
2023-03-06T12:31:03.857Z,24.73
2023-03-06T12:33:35.490Z,15.40
2023-03-06T12:36:21.496Z,14.70
2023-03-06T12:39:10.360Z,11.85
2023-03-06T12:42:04.938Z,26.92
2023-03-06T12:44:48.449Z,24.00
2023-03-06T12:47:21.834Z,21.77
2023-03-06T12:50:17.127Z,21.15
2023-03-06T12:52:53.628Z,35.03
2023-03-06T12:55:26.017Z,15.98
2023-03-06T12:57:55.658Z,22.95
2023-03-06T13:00:41.615Z,20.70
2023-03-06T13:03:30.616Z,25.13
2023-03-06T13:06:50.809Z,31.10
2023-03-06T13:09:48.296Z,26.08
2023-03-06T13:12:50.197Z,19.33
2023-03-06T13:15:40.185Z,19.42
2023-03-06T13:18:22.125Z,57.25
2023-03-06T13:20:59.908Z,14.43
2023-03-06T13:23:30.461Z,30.88
2023-03-06T13:26:06.633Z,37.38
2023-03-06T13:28:46.398Z,33.38
2023-03-06T13:31:41.180Z,30.15
2023-03-06T13:34:31.509Z,34.45
2023-03-06T13:37:47.498Z,61.63
2023-03-06T13:40:35.921Z,67.65
2023-03-06T13:43:10.292Z,34.65
2023-03-06T13:45:43.303Z,23.88
2023-03-06T13:48:45.341Z,38.45
2023-03-06T13:51:38.171Z,56.88
2023-03-06T13:54:39.453Z,24.63
2023-03-06T13:57:29.701Z,20.20
2023-03-06T14:00:20.490Z,168.85
2023-03-06T14:03:42.840Z,26.02
2023-03-06T14:06:38.740Z,21.10
2023-03-06T14:09:47.867Z,25.17
2023-03-06T14:12:42.798Z,93.38
2023-03-06T14:15:25.640Z,125.68
2023-03-06T14:18:05.821Z,67.32
2023-03-06T14:20:43.959Z,109.38
2023-03-06T14:23:40.119Z,79.82
2023-03-06T14:27:05.233Z,35.70
2023-03-06T14:29:35.860Z,58.97
2023-03-06T14:32:09.050Z,29.15
2023-03-06T14:34:41.662Z,130.27
2023-03-06T14:37:26.195Z,47.85
2023-03-06T14:39:56.153Z,45.53
2023-03-06T14:42:30.113Z,38.70
2023-03-06T14:45:08.590Z,145.73
2023-03-06T14:47:50.360Z,203.60
2023-03-06T14:50:25.680Z,156.75
2023-03-06T14:53:14.067Z,126.60
2023-03-06T14:55:52.326Z,80.07
2023-03-06T14:58:34.004Z,72.30
2023-03-06T15:01:08.842Z,49.05
2023-03-06T15:03:53.089Z,47.40
2023-03-06T15:06:24.393Z,40.63
2023-03-06T15:09:07.739Z,51.15
2023-03-06T15:11:59.870Z,137.98
2023-03-06T15:14:40.567Z,124.40
2023-03-06T15:17:19.009Z,86.68
2023-03-06T15:19:54.324Z,63.13
2023-03-06T15:22:40.753Z,40.10
2023-03-06T15:25:25.103Z,63.05
2023-03-06T15:28:02.405Z,145.93
2023-03-06T15:30:36.321Z,114.43
2023-03-06T15:33:22.914Z,56.83
2023-03-06T15:36:04.892Z,87.72
2023-03-06T15:38:41.164Z,44.90
2023-03-06T15:41:34.814Z,54.55
2023-03-06T15:44:13.617Z,240.60
2023-03-06T15:46:44.074Z,275.00
2023-03-06T15:49:18.832Z,749.30
2023-03-06T15:51:49.932Z,301.63
2023-03-06T15:54:19.633Z,277.38
2023-03-06T15:56:50.763Z,79.65
2023-03-06T15:59:31.488Z,135.50
2023-03-06T16:02:17.492Z,240.95
2023-03-06T16:04:55.204Z,127.88
2023-03-06T16:07:28.384Z,95.05
2023-03-06T16:09:57.495Z,111.78
2023-03-06T16:12:26.280Z,59.85
2023-03-06T16:14:55.258Z,72.90
2023-03-06T16:17:23.883Z,65.63
2023-03-06T16:19:53.458Z,74.28
2023-03-06T16:22:22.538Z,260.42
2023-03-06T16:24:51.975Z,139.95
2023-03-06T16:27:22.843Z,136.70
2023-03-06T16:29:51.116Z,253.60
2023-03-06T16:32:20.289Z,89.55
2023-03-06T16:34:48.434Z,79.25
2023-03-06T16:37:18.771Z,74.22
2023-03-06T16:39:47.035Z,67.25
2023-03-06T16:47:44.709Z,46.22
2023-03-06T16:50:26.819Z,32.67
2023-03-06T16:52:57.339Z,48.03
2023-03-06T16:55:26.787Z,19.88
2023-03-06T16:57:58.622Z,19.25
2023-03-06T17:00:31.370Z,17.42
2023-03-06T17:03:03.841Z,17.33
2023-03-06T17:05:38.160Z,22.65
2023-03-06T17:08:07.528Z,71.77
2023-03-06T17:10:35.845Z,68.05
2023-03-06T17:13:07.439Z,450.60
2023-03-06T17:15:35.577Z,164.50
2023-03-06T17:18:06.705Z,89.22
2023-03-06T17:20:41.452Z,87.47
2023-03-06T17:23:10.913Z,118.22
2023-03-06T17:25:39.346Z,143.73
2023-03-06T17:28:11.007Z,60.25
2023-03-06T17:30:40.497Z,146.02
2023-03-06T17:33:11.033Z,288.58
2023-03-06T17:35:43.646Z,132.38
2023-03-06T17:38:22.638Z,60.20
2023-03-06T17:40:56.892Z,84.47
2023-03-06T17:43:33.217Z,54.33
2023-03-06T17:49:12.029Z,118.40
2023-03-06T17:51:44.277Z,102.28
2023-03-06T17:54:18.252Z,283.05
2023-03-06T17:56:50.521Z,112.65
2023-03-06T17:59:19.517Z,247.43
2023-03-06T18:01:55.087Z,115.03
2023-03-06T18:04:31.712Z,141.63
2023-03-06T18:07:03.680Z,121.57
2023-03-06T18:09:34.112Z,119.68
2023-03-06T18:12:04.870Z,153.65
2023-03-06T18:15:17.582Z,215.75
2023-03-06T18:17:57.733Z,83.45
2023-03-06T18:20:45.835Z,92.25
2023-03-06T18:23:18.673Z,107.07
2023-03-06T18:25:48.666Z,91.93
2023-03-06T18:28:17.862Z,72.55
2023-03-06T18:30:49.998Z,61.40
2023-03-06T18:33:18.985Z,58.22
2023-03-06T18:35:47.311Z,68.03
2023-03-06T18:38:19.975Z,81.22
2023-03-06T18:40:52.654Z,89.72
2023-03-06T18:43:24.014Z,84.20
2023-03-06T18:45:56.327Z,97.18
2023-03-06T18:48:25.004Z,167.55
2023-03-06T18:50:56.163Z,227.27
2023-03-06T18:53:35.345Z,199.05
2023-03-06T18:56:07.577Z,159.35
2023-03-06T18:58:37.236Z,129.80
2023-03-06T19:01:09.620Z,123.68
2023-03-06T19:03:38.080Z,96.57
2023-03-06T19:06:31.051Z,80.00
2023-03-06T19:09:03.273Z,78.40
2023-03-06T19:11:36.086Z,62.42
2023-03-06T19:14:07.557Z,53.47
2023-03-06T19:16:36.642Z,56.85
2023-03-06T19:19:09.452Z,64.63
2023-03-06T19:21:37.475Z,147.18
2023-03-06T19:24:14.626Z,249.70
2023-03-06T19:26:44.257Z,87.30
2023-03-06T19:29:16.914Z,59.25
2023-03-06T19:31:45.416Z,41.75
2023-03-06T19:34:17.272Z,46.55
2023-03-06T19:36:51.883Z,33.42
2023-03-06T19:39:20.980Z,40.80
2023-03-06T19:41:48.958Z,38.03
2023-03-06T19:44:22.303Z,130.13
2023-03-06T19:46:52.354Z,117.72
2023-03-06T19:49:23.228Z,86.97
2023-03-06T19:51:51.718Z,60.60
2023-03-06T19:54:24.509Z,38.30
2023-03-06T19:56:54.383Z,38.97
2023-03-06T19:59:23.280Z,37.28
2023-03-06T20:01:52.366Z,44.25
2023-03-06T20:04:26.462Z,99.07
2023-03-06T20:07:05.047Z,94.72
2023-03-06T20:09:33.942Z,55.10
2023-03-06T20:12:08.164Z,44.72
2023-03-06T20:14:38.413Z,42.30
2023-03-06T20:17:08.707Z,38.65
2023-03-06T20:19:40.313Z,35.83
2023-03-06T20:22:08.658Z,34.05
2023-03-06T20:24:51.118Z,36.05
2023-03-06T20:27:20.384Z,29.63
2023-03-06T20:29:56.104Z,32.28
2023-03-06T20:32:24.491Z,30.30
2023-03-06T20:34:55.887Z,34.90
2023-03-06T20:37:27.318Z,33.28
2023-03-06T20:39:58.434Z,34.00
2023-03-06T20:42:27.421Z,37.30
2023-03-06T20:44:57.185Z,36.53
2023-03-06T20:47:28.825Z,37.85
2023-03-06T20:49:58.350Z,37.15
2023-03-06T20:52:29.142Z,37.40
2023-03-06T20:54:59.100Z,36.22
2023-03-06T20:57:27.468Z,45.58
2023-03-06T21:00:00.204Z,37.95
2023-03-06T21:02:29.679Z,41.42
2023-03-06T21:05:25.641Z,36.08
2023-03-06T21:07:54.642Z,40.70
2023-03-06T21:10:23.680Z,39.08
2023-03-06T21:12:58.019Z,41.05
2023-03-06T21:15:30.428Z,37.25
2023-03-06T21:18:01.426Z,37.70
2023-03-06T21:20:34.479Z,38.13
2023-03-06T21:23:11.065Z,37.95
2023-03-06T21:25:57.222Z,37.65
2023-03-06T21:28:30.002Z,43.50
2023-03-06T21:31:01.665Z,39.45
2023-03-06T21:33:30.778Z,39.92
2023-03-06T21:35:59.345Z,41.53
2023-03-06T21:38:33.022Z,39.45
2023-03-06T21:41:14.271Z,42.10
2023-03-06T21:43:43.585Z,41.70
2023-03-06T21:46:15.625Z,37.15
2023-03-06T21:48:44.515Z,37.38
2023-03-06T21:51:17.333Z,34.75
2023-03-06T21:53:48.787Z,32.63
2023-03-06T21:56:21.143Z,31.58
2023-03-06T21:58:54.809Z,32.90
2023-03-06T22:01:25.997Z,29.08
2023-03-06T22:04:49.918Z,34.83
2023-03-06T22:07:20.313Z,30.85
2023-03-06T22:09:52.116Z,30.15
2023-03-06T22:12:20.655Z,37.70
2023-03-06T22:14:52.824Z,46.38
2023-03-06T22:17:21.907Z,70.20
2023-03-06T22:19:50.781Z,65.22
2023-03-06T22:22:25.367Z,60.80
2023-03-06T22:27:27.383Z,62.05
2023-03-06T22:29:58.284Z,63.35
2023-03-06T22:32:47.501Z,79.18
2023-03-06T22:36:55.775Z,91.97
2023-03-06T22:39:26.739Z,87.20
2023-03-06T22:42:00.914Z,73.68
2023-03-06T22:44:34.213Z,69.18
2023-03-06T22:47:03.210Z,58.72
2023-03-06T22:49:35.964Z,65.07
2023-03-06T22:52:04.777Z,93.03
2023-03-06T22:54:33.219Z,93.32
2023-03-06T22:57:05.057Z,77.32
2023-03-06T22:59:34.740Z,67.70
2023-03-06T23:02:04.800Z,56.97
2023-03-06T23:04:34.271Z,62.03
2023-03-06T23:07:02.642Z,74.13
2023-03-06T23:09:34.043Z,78.60
2023-03-06T23:12:22.140Z,82.80
2023-03-06T23:15:10.620Z,101.50
2023-03-06T23:18:00.117Z,99.03
2023-03-06T23:20:49.648Z,257.65
2023-03-06T23:23:38.062Z,144.93
2023-03-06T23:26:09.125Z,87.47
2023-03-06T23:28:37.837Z,56.97
2023-03-06T23:31:08.256Z,58.60
2023-03-06T23:33:39.381Z,93.00
2023-03-06T23:36:14.095Z,75.55
2023-03-06T23:38:46.981Z,96.55
2023-03-06T23:41:21.470Z,71.47
2023-03-06T23:43:54.006Z,75.03
2023-03-06T23:46:36.101Z,70.20
2023-03-06T23:49:11.624Z,56.72
2023-03-06T23:51:47.264Z,61.63
2023-03-06T23:54:19.543Z,59.13
2023-03-06T23:56:51.753Z,58.40
2023-03-06T23:59:20.583Z,64.15
